sensor_id;sensor_type;location;lat;lon;timestamp;P1;durP1;ratioP1;P2;durP2;ratioP2
18048;SDS011;9149;47.002;8.604;2022-09-27T00:01:49;2.00;;;1.58;;
18048;SDS011;9149;47.002;8.604;2022-09-27T00:04:17;1.60;;;1.20;;
18048;SDS011;9149;47.002;8.604;2022-09-27T00:06:45;2.03;;;1.20;;
18048;SDS011;9149;47.002;8.604;2022-09-27T00:09:13;2.88;;;1.15;;
18048;SDS011;9149;47.002;8.604;2022-09-27T00:11:41;2.40;;;1.30;;
18048;SDS011;9149;47.002;8.604;2022-09-27T00:14:27;1.40;;;1.10;;
18048;SDS011;9149;47.002;8.604;2022-09-27T00:16:56;2.30;;;1.35;;
18048;SDS011;9149;47.002;8.604;2022-09-27T00:19:23;3.53;;;1.60;;
18048;SDS011;9149;47.002;8.604;2022-09-27T00:21:51;1.85;;;1.25;;
18048;SDS011;9149;47.002;8.604;2022-09-27T00:24:19;2.35;;;1.35;;
18048;SDS011;9149;47.002;8.604;2022-09-27T00:26:47;1.55;;;1.38;;
18048;SDS011;9149;47.002;8.604;2022-09-27T00:29:16;2.85;;;1.45;;
18048;SDS011;9149;47.002;8.604;2022-09-27T00:31:44;1.88;;;1.40;;
18048;SDS011;9149;47.002;8.604;2022-09-27T00:34:15;4.30;;;1.33;;
18048;SDS011;9149;47.002;8.604;2022-09-27T00:36:44;2.15;;;1.30;;
18048;SDS011;9149;47.002;8.604;2022-09-27T00:39:31;2.28;;;1.40;;
18048;SDS011;9149;47.002;8.604;2022-09-27T00:41:59;3.63;;;1.42;;
18048;SDS011;9149;47.002;8.604;2022-09-27T00:47:06;2.10;;;1.30;;
18048;SDS011;9149;47.002;8.604;2022-09-27T00:49:37;2.50;;;1.60;;
18048;SDS011;9149;47.002;8.604;2022-09-27T00:52:07;2.05;;;1.33;;
18048;SDS011;9149;47.002;8.604;2022-09-27T00:54:35;1.77;;;1.35;;
18048;SDS011;9149;47.002;8.604;2022-09-27T00:57:05;2.42;;;1.55;;
18048;SDS011;9149;47.002;8.604;2022-09-27T00:59:34;2.15;;;1.48;;
18048;SDS011;9149;47.002;8.604;2022-09-27T01:02:02;2.17;;;1.55;;
18048;SDS011;9149;47.002;8.604;2022-09-27T01:04:31;6.30;;;1.48;;
18048;SDS011;9149;47.002;8.604;2022-09-27T01:07:01;4.63;;;1.60;;
18048;SDS011;9149;47.002;8.604;2022-09-27T01:09:29;2.90;;;1.60;;
18048;SDS011;9149;47.002;8.604;2022-09-27T01:11:59;5.72;;;1.70;;
18048;SDS011;9149;47.002;8.604;2022-09-27T01:14:39;5.70;;;1.75;;
18048;SDS011;9149;47.002;8.604;2022-09-27T01:17:11;1.63;;;1.42;;
18048;SDS011;9149;47.002;8.604;2022-09-27T01:19:49;3.00;;;1.60;;
18048;SDS011;9149;47.002;8.604;2022-09-27T01:22:26;2.03;;;1.63;;
18048;SDS011;9149;47.002;8.604;2022-09-27T01:24:56;3.05;;;1.83;;
18048;SDS011;9149;47.002;8.604;2022-09-27T01:30:14;3.55;;;1.83;;
18048;SDS011;9149;47.002;8.604;2022-09-27T01:32:47;2.08;;;1.60;;
18048;SDS011;9149;47.002;8.604;2022-09-27T01:35:19;2.65;;;1.70;;
18048;SDS011;9149;47.002;8.604;2022-09-27T01:37:50;4.30;;;1.77;;
18048;SDS011;9149;47.002;8.604;2022-09-27T01:40:20;3.13;;;1.88;;
18048;SDS011;9149;47.002;8.604;2022-09-27T01:43:11;3.72;;;2.05;;
18048;SDS011;9149;47.002;8.604;2022-09-27T01:45:43;3.75;;;1.98;;
18048;SDS011;9149;47.002;8.604;2022-09-27T01:48:21;5.32;;;2.70;;
18048;SDS011;9149;47.002;8.604;2022-09-27T01:50:52;6.15;;;3.05;;
18048;SDS011;9149;47.002;8.604;2022-09-27T01:53:22;4.43;;;2.30;;
18048;SDS011;9149;47.002;8.604;2022-09-27T01:56:05;7.57;;;2.97;;
18048;SDS011;9149;47.002;8.604;2022-09-27T01:58:49;3.22;;;2.05;;
18048;SDS011;9149;47.002;8.604;2022-09-27T02:01:21;2.22;;;1.70;;
18048;SDS011;9149;47.002;8.604;2022-09-27T02:03:51;4.05;;;2.50;;
18048;SDS011;9149;47.002;8.604;2022-09-27T02:06:40;3.90;;;2.40;;
18048;SDS011;9149;47.002;8.604;2022-09-27T02:09:22;3.63;;;2.42;;
18048;SDS011;9149;47.002;8.604;2022-09-27T02:12:13;3.67;;;2.28;;
18048;SDS011;9149;47.002;8.604;2022-09-27T02:14:43;7.00;;;2.58;;
18048;SDS011;9149;47.002;8.604;2022-09-27T02:17:20;4.10;;;2.20;;
18048;SDS011;9149;47.002;8.604;2022-09-27T02:19:52;4.90;;;1.90;;
18048;SDS011;9149;47.002;8.604;2022-09-27T02:22:31;3.40;;;1.50;;
18048;SDS011;9149;47.002;8.604;2022-09-27T02:25:00;3.53;;;1.73;;
18048;SDS011;9149;47.002;8.604;2022-09-27T02:27:30;2.22;;;1.67;;
18048;SDS011;9149;47.002;8.604;2022-09-27T02:30:06;3.58;;;2.03;;
18048;SDS011;9149;47.002;8.604;2022-09-27T02:32:37;2.10;;;1.60;;
18048;SDS011;9149;47.002;8.604;2022-09-27T02:35:10;8.38;;;1.70;;
18048;SDS011;9149;47.002;8.604;2022-09-27T02:37:39;3.93;;;2.10;;
18048;SDS011;9149;47.002;8.604;2022-09-27T02:40:07;2.65;;;1.52;;
18048;SDS011;9149;47.002;8.604;2022-09-27T02:42:35;2.63;;;1.83;;
18048;SDS011;9149;47.002;8.604;2022-09-27T02:45:03;2.67;;;1.55;;
18048;SDS011;9149;47.002;8.604;2022-09-27T02:47:34;3.03;;;1.60;;
18048;SDS011;9149;47.002;8.604;2022-09-27T02:50:14;1.90;;;1.50;;
18048;SDS011;9149;47.002;8.604;2022-09-27T02:52:53;2.65;;;1.55;;
18048;SDS011;9149;47.002;8.604;2022-09-27T02:55:33;1.92;;;1.50;;
18048;SDS011;9149;47.002;8.604;2022-09-27T02:58:21;3.47;;;1.67;;
18048;SDS011;9149;47.002;8.604;2022-09-27T03:01:11;2.65;;;1.60;;
18048;SDS011;9149;47.002;8.604;2022-09-27T03:03:58;2.00;;;1.50;;
18048;SDS011;9149;47.002;8.604;2022-09-27T03:06:27;1.93;;;1.40;;
18048;SDS011;9149;47.002;8.604;2022-09-27T03:08:56;2.88;;;1.38;;
18048;SDS011;9149;47.002;8.604;2022-09-27T03:11:23;1.97;;;1.30;;
18048;SDS011;9149;47.002;8.604;2022-09-27T03:13:51;1.60;;;1.30;;
18048;SDS011;9149;47.002;8.604;2022-09-27T03:16:39;2.70;;;1.50;;
18048;SDS011;9149;47.002;8.604;2022-09-27T03:19:27;1.88;;;1.45;;
18048;SDS011;9149;47.002;8.604;2022-09-27T03:22:16;1.63;;;1.33;;
18048;SDS011;9149;47.002;8.604;2022-09-27T03:24:44;1.75;;;1.40;;
18048;SDS011;9149;47.002;8.604;2022-09-27T03:27:12;2.90;;;1.50;;
18048;SDS011;9149;47.002;8.604;2022-09-27T03:29:40;2.80;;;1.52;;
18048;SDS011;9149;47.002;8.604;2022-09-27T03:32:09;1.75;;;1.40;;
18048;SDS011;9149;47.002;8.604;2022-09-27T03:34:52;1.88;;;1.45;;
18048;SDS011;9149;47.002;8.604;2022-09-27T12:18:55;1.27;;;0.63;;
18048;SDS011;9149;47.002;8.604;2022-09-27T12:21:44;0.68;;;0.50;;
18048;SDS011;9149;47.002;8.604;2022-09-27T12:24:14;1.40;;;0.50;;
18048;SDS011;9149;47.002;8.604;2022-09-27T12:26:56;0.40;;;0.40;;
18048;SDS011;9149;47.002;8.604;2022-09-27T12:29:26;0.50;;;0.50;;
18048;SDS011;9149;47.002;8.604;2022-09-27T12:31:58;0.52;;;0.52;;
18048;SDS011;9149;47.002;8.604;2022-09-27T12:34:31;1.00;;;0.50;;
18048;SDS011;9149;47.002;8.604;2022-09-27T12:37:02;0.50;;;0.50;;
18048;SDS011;9149;47.002;8.604;2022-09-27T12:39:36;0.50;;;0.40;;
18048;SDS011;9149;47.002;8.604;2022-09-27T12:42:19;1.08;;;0.60;;
18048;SDS011;9149;47.002;8.604;2022-09-27T12:44:47;0.70;;;0.60;;
18048;SDS011;9149;47.002;8.604;2022-09-27T12:47:22;0.95;;;0.40;;
18048;SDS011;9149;47.002;8.604;2022-09-27T12:49:57;0.52;;;0.50;;
18048;SDS011;9149;47.002;8.604;2022-09-27T12:52:29;1.17;;;0.50;;
18048;SDS011;9149;47.002;8.604;2022-09-27T12:55:03;0.95;;;0.57;;
18048;SDS011;9149;47.002;8.604;2022-09-27T12:57:39;5.82;;;0.60;;
18048;SDS011;9149;47.002;8.604;2022-09-27T13:00:16;2.95;;;0.60;;
18048;SDS011;9149;47.002;8.604;2022-09-27T13:02:52;1.95;;;0.40;;
18048;SDS011;9149;47.002;8.604;2022-09-27T13:05:51;0.80;;;0.60;;
18048;SDS011;9149;47.002;8.604;2022-09-27T13:08:31;0.60;;;0.60;;
18048;SDS011;9149;47.002;8.604;2022-09-27T13:11:05;0.60;;;0.40;;
18048;SDS011;9149;47.002;8.604;2022-09-27T13:13:35;0.63;;;0.50;;
18048;SDS011;9149;47.002;8.604;2022-09-27T13:16:08;2.42;;;0.52;;
18048;SDS011;9149;47.002;8.604;2022-09-27T13:18:48;0.50;;;0.50;;
18048;SDS011;9149;47.002;8.604;2022-09-27T13:29:50;0.73;;;0.57;;
18048;SDS011;9149;47.002;8.604;2022-09-27T13:32:18;0.50;;;0.50;;
18048;SDS011;9149;47.002;8.604;2022-09-27T13:35:11;0.85;;;0.50;;
18048;SDS011;9149;47.002;8.604;2022-09-27T13:37:44;0.60;;;0.50;;
18048;SDS011;9149;47.002;8.604;2022-09-27T13:40:23;0.60;;;0.50;;
18048;SDS011;9149;47.002;8.604;2022-09-27T13:43:04;1.77;;;0.60;;
18048;SDS011;9149;47.002;8.604;2022-09-27T13:45:52;1.10;;;0.55;;
18048;SDS011;9149;47.002;8.604;2022-09-27T13:48:23;1.45;;;0.50;;
18048;SDS011;9149;47.002;8.604;2022-09-27T13:50:53;2.40;;;0.70;;
18048;SDS011;9149;47.002;8.604;2022-09-27T13:53:26;1.35;;;0.60;;
18048;SDS011;9149;47.002;8.604;2022-09-27T13:55:55;0.50;;;0.50;;
18048;SDS011;9149;47.002;8.604;2022-09-27T14:01:40;0.65;;;0.50;;
18048;SDS011;9149;47.002;8.604;2022-09-27T14:04:12;1.58;;;0.65;;
18048;SDS011;9149;47.002;8.604;2022-09-27T14:06:42;0.50;;;0.40;;
18048;SDS011;9149;47.002;8.604;2022-09-27T14:09:13;1.35;;;0.90;;
18048;SDS011;9149;47.002;8.604;2022-09-27T14:11:43;1.35;;;0.70;;
18048;SDS011;9149;47.002;8.604;2022-09-27T14:14:16;4.18;;;0.82;;
18048;SDS011;9149;47.002;8.604;2022-09-27T14:16:52;0.82;;;0.70;;
18048;SDS011;9149;47.002;8.604;2022-09-27T14:19:21;0.55;;;0.55;;
18048;SDS011;9149;47.002;8.604;2022-09-27T14:21:51;3.75;;;0.80;;
18048;SDS011;9149;47.002;8.604;2022-09-27T14:24:30;4.32;;;0.70;;
18048;SDS011;9149;47.002;8.604;2022-09-27T14:27:05;4.22;;;0.60;;
18048;SDS011;9149;47.002;8.604;2022-09-27T14:29:38;2.92;;;0.70;;
18048;SDS011;9149;47.002;8.604;2022-09-27T14:32:10;1.08;;;0.50;;
18048;SDS011;9149;47.002;8.604;2022-09-27T14:35:01;9.10;;;0.80;;
18048;SDS011;9149;47.002;8.604;2022-09-27T14:37:29;6.28;;;3.20;;
18048;SDS011;9149;47.002;8.604;2022-09-27T14:40:05;2.88;;;1.40;;
18048;SDS011;9149;47.002;8.604;2022-09-27T14:42:34;1.02;;;0.60;;
18048;SDS011;9149;47.002;8.604;2022-09-27T14:45:04;1.00;;;0.60;;
18048;SDS011;9149;47.002;8.604;2022-09-27T14:47:34;1.30;;;0.60;;
18048;SDS011;9149;47.002;8.604;2022-09-27T14:50:11;1.73;;;0.60;;
18048;SDS011;9149;47.002;8.604;2022-09-27T14:52:40;0.95;;;0.70;;
18048;SDS011;9149;47.002;8.604;2022-09-27T14:55:09;3.53;;;0.85;;
18048;SDS011;9149;47.002;8.604;2022-09-27T14:57:44;0.52;;;0.52;;
18048;SDS011;9149;47.002;8.604;2022-09-27T15:00:15;5.40;;;0.68;;
18048;SDS011;9149;47.002;8.604;2022-09-27T15:02:45;3.72;;;0.65;;
18048;SDS011;9149;47.002;8.604;2022-09-27T15:05:14;0.90;;;0.60;;
18048;SDS011;9149;47.002;8.604;2022-09-27T15:07:43;2.45;;;0.60;;
18048;SDS011;9149;47.002;8.604;2022-09-27T15:10:12;0.88;;;0.80;;
18048;SDS011;9149;47.002;8.604;2022-09-27T15:12:42;2.40;;;0.80;;
18048;SDS011;9149;47.002;8.604;2022-09-27T15:15:14;1.75;;;0.65;;
18048;SDS011;9149;47.002;8.604;2022-09-27T15:17:43;3.17;;;0.68;;
18048;SDS011;9149;47.002;8.604;2022-09-27T15:20:19;3.88;;;0.65;;
18048;SDS011;9149;47.002;8.604;2022-09-27T15:22:47;0.70;;;0.60;;
18048;SDS011;9149;47.002;8.604;2022-09-27T15:25:17;0.70;;;0.60;;
18048;SDS011;9149;47.002;8.604;2022-09-27T15:27:46;5.47;;;0.80;;
18048;SDS011;9149;47.002;8.604;2022-09-27T15:30:16;2.33;;;0.60;;
18048;SDS011;9149;47.002;8.604;2022-09-27T15:32:47;2.65;;;0.70;;
18048;SDS011;9149;47.002;8.604;2022-09-27T15:35:20;0.82;;;0.70;;
18048;SDS011;9149;47.002;8.604;2022-09-27T15:37:49;3.03;;;0.60;;
18048;SDS011;9149;47.002;8.604;2022-09-27T15:43:00;1.70;;;0.60;;
18048;SDS011;9149;47.002;8.604;2022-09-27T15:45:28;0.93;;;0.70;;
18048;SDS011;9149;47.002;8.604;2022-09-27T15:47:56;3.25;;;0.75;;
18048;SDS011;9149;47.002;8.604;2022-09-27T15:50:34;1.05;;;0.70;;
18048;SDS011;9149;47.002;8.604;2022-09-27T15:53:02;0.50;;;0.50;;
18048;SDS011;9149;47.002;8.604;2022-09-27T15:55:33;0.88;;;0.70;;
18048;SDS011;9149;47.002;8.604;2022-09-27T15:58:01;2.88;;;0.70;;
18048;SDS011;9149;47.002;8.604;2022-09-27T16:00:37;1.08;;;0.63;;
18048;SDS011;9149;47.002;8.604;2022-09-27T16:03:16;0.90;;;0.70;;
18048;SDS011;9149;47.002;8.604;2022-09-27T16:05:46;1.02;;;0.73;;
18048;SDS011;9149;47.002;8.604;2022-09-27T16:08:13;1.85;;;0.75;;
18048;SDS011;9149;47.002;8.604;2022-09-27T16:10:43;1.70;;;0.70;;
18048;SDS011;9149;47.002;8.604;2022-09-27T16:13:11;0.82;;;0.73;;
18048;SDS011;9149;47.002;8.604;2022-09-27T16:15:39;0.82;;;0.65;;
18048;SDS011;9149;47.002;8.604;2022-09-27T16:18:08;0.90;;;0.80;;
18048;SDS011;9149;47.002;8.604;2022-09-27T16:20:35;0.73;;;0.70;;
18048;SDS011;9149;47.002;8.604;2022-09-27T16:23:05;1.08;;;0.68;;
18048;SDS011;9149;47.002;8.604;2022-09-27T16:25:33;1.20;;;0.75;;
18048;SDS011;9149;47.002;8.604;2022-09-27T16:28:03;0.65;;;0.60;;
18048;SDS011;9149;47.002;8.604;2022-09-27T16:30:31;3.13;;;1.02;;
18048;SDS011;9149;47.002;8.604;2022-09-27T16:32:59;1.70;;;1.50;;
18048;SDS011;9149;47.002;8.604;2022-09-27T16:35:27;1.38;;;0.75;;
18048;SDS011;9149;47.002;8.604;2022-09-27T16:37:55;2.25;;;1.02;;
18048;SDS011;9149;47.002;8.604;2022-09-27T16:40:25;6.32;;;1.02;;
18048;SDS011;9149;47.002;8.604;2022-09-27T16:42:53;1.15;;;0.80;;
18048;SDS011;9149;47.002;8.604;2022-09-27T16:45:21;1.65;;;0.90;;
18048;SDS011;9149;47.002;8.604;2022-09-27T16:47:49;0.57;;;0.52;;
18048;SDS011;9149;47.002;8.604;2022-09-27T16:50:16;0.70;;;0.70;;
18048;SDS011;9149;47.002;8.604;2022-09-27T16:52:56;0.70;;;0.60;;
18048;SDS011;9149;47.002;8.604;2022-09-27T16:55:26;1.13;;;0.80;;
18048;SDS011;9149;47.002;8.604;2022-09-27T16:57:56;1.38;;;0.90;;
18048;SDS011;9149;47.002;8.604;2022-09-27T17:00:25;0.65;;;0.60;;
18048;SDS011;9149;47.002;8.604;2022-09-27T17:02:53;0.98;;;0.70;;
18048;SDS011;9149;47.002;8.604;2022-09-27T17:05:21;0.70;;;0.60;;
18048;SDS011;9149;47.002;8.604;2022-09-27T17:07:49;1.40;;;0.80;;
18048;SDS011;9149;47.002;8.604;2022-09-27T17:10:17;1.05;;;0.60;;
18048;SDS011;9149;47.002;8.604;2022-09-27T17:12:46;0.60;;;0.60;;
18048;SDS011;9149;47.002;8.604;2022-09-27T17:15:15;2.22;;;0.70;;
18048;SDS011;9149;47.002;8.604;2022-09-27T17:17:43;0.90;;;0.80;;
18048;SDS011;9149;47.002;8.604;2022-09-27T17:20:11;0.98;;;0.80;;
18048;SDS011;9149;47.002;8.604;2022-09-27T17:22:39;1.88;;;0.70;;
18048;SDS011;9149;47.002;8.604;2022-09-27T17:25:08;0.70;;;0.70;;
18048;SDS011;9149;47.002;8.604;2022-09-27T17:27:36;0.65;;;0.65;;
18048;SDS011;9149;47.002;8.604;2022-09-27T17:30:05;1.20;;;0.70;;
18048;SDS011;9149;47.002;8.604;2022-09-27T17:32:33;2.40;;;0.73;;
18048;SDS011;9149;47.002;8.604;2022-09-27T17:35:01;2.13;;;1.00;;
18048;SDS011;9149;47.002;8.604;2022-09-27T17:37:29;0.82;;;0.75;;
18048;SDS011;9149;47.002;8.604;2022-09-27T17:39:56;1.60;;;1.00;;
18048;SDS011;9149;47.002;8.604;2022-09-27T17:42:24;1.25;;;1.00;;
18048;SDS011;9149;47.002;8.604;2022-09-27T17:44:55;1.35;;;0.82;;
18048;SDS011;9149;47.002;8.604;2022-09-27T17:47:25;1.55;;;0.93;;
18048;SDS011;9149;47.002;8.604;2022-09-27T17:50:07;1.15;;;1.00;;
18048;SDS011;9149;47.002;8.604;2022-09-27T17:52:49;1.23;;;0.90;;
18048;SDS011;9149;47.002;8.604;2022-09-27T17:55:16;3.67;;;2.13;;
18048;SDS011;9149;47.002;8.604;2022-09-27T17:57:45;1.75;;;0.70;;
18048;SDS011;9149;47.002;8.604;2022-09-27T18:00:12;1.35;;;0.63;;
18048;SDS011;9149;47.002;8.604;2022-09-27T18:02:42;1.10;;;0.88;;
18048;SDS011;9149;47.002;8.604;2022-09-27T18:05:11;1.13;;;0.90;;
18048;SDS011;9149;47.002;8.604;2022-09-27T18:07:39;1.80;;;0.88;;
18048;SDS011;9149;47.002;8.604;2022-09-27T18:10:06;0.93;;;0.73;;
18048;SDS011;9149;47.002;8.604;2022-09-27T18:12:34;0.90;;;0.80;;
18048;SDS011;9149;47.002;8.604;2022-09-27T18:15:02;1.00;;;0.90;;
18048;SDS011;9149;47.002;8.604;2022-09-27T18:17:30;0.80;;;0.80;;
18048;SDS011;9149;47.002;8.604;2022-09-27T18:20:00;3.42;;;0.70;;
18048;SDS011;9149;47.002;8.604;2022-09-27T18:22:28;1.77;;;0.90;;
18048;SDS011;9149;47.002;8.604;2022-09-27T18:24:56;1.30;;;0.80;;
18048;SDS011;9149;47.002;8.604;2022-09-27T18:27:26;2.33;;;0.90;;
18048;SDS011;9149;47.002;8.604;2022-09-27T18:29:54;1.35;;;0.90;;
18048;SDS011;9149;47.002;8.604;2022-09-27T18:32:21;1.17;;;0.88;;
18048;SDS011;9149;47.002;8.604;2022-09-27T18:34:49;1.15;;;0.90;;
18048;SDS011;9149;47.002;8.604;2022-09-27T18:37:18;0.60;;;0.60;;
18048;SDS011;9149;47.002;8.604;2022-09-27T18:39:46;3.75;;;0.80;;
18048;SDS011;9149;47.002;8.604;2022-09-27T18:42:14;0.80;;;0.80;;
18048;SDS011;9149;47.002;8.604;2022-09-27T18:44:42;7.30;;;0.98;;
18048;SDS011;9149;47.002;8.604;2022-09-27T18:47:10;1.02;;;0.68;;
18048;SDS011;9149;47.002;8.604;2022-09-27T18:49:37;0.63;;;0.63;;
18048;SDS011;9149;47.002;8.604;2022-09-27T18:52:05;7.78;;;0.80;;
18048;SDS011;9149;47.002;8.604;2022-09-27T18:54:34;2.25;;;0.90;;
18048;SDS011;9149;47.002;8.604;2022-09-27T18:57:03;2.13;;;0.80;;
18048;SDS011;9149;47.002;8.604;2022-09-27T18:59:31;1.95;;;1.00;;
18048;SDS011;9149;47.002;8.604;2022-09-27T19:02:00;2.42;;;0.82;;
18048;SDS011;9149;47.002;8.604;2022-09-27T19:04:28;2.15;;;0.77;;
18048;SDS011;9149;47.002;8.604;2022-09-27T19:06:56;0.90;;;0.80;;
18048;SDS011;9149;47.002;8.604;2022-09-27T19:09:24;6.00;;;1.13;;
18048;SDS011;9149;47.002;8.604;2022-09-27T19:11:53;1.10;;;0.85;;
18048;SDS011;9149;47.002;8.604;2022-09-27T19:14:21;3.08;;;1.00;;
18048;SDS011;9149;47.002;8.604;2022-09-27T19:16:49;1.17;;;0.80;;
18048;SDS011;9149;47.002;8.604;2022-09-27T19:19:17;2.47;;;0.70;;
18048;SDS011;9149;47.002;8.604;2022-09-27T19:21:45;0.95;;;0.70;;
18048;SDS011;9149;47.002;8.604;2022-09-27T19:24:13;3.95;;;0.90;;
18048;SDS011;9149;47.002;8.604;2022-09-27T19:26:41;0.80;;;0.80;;
18048;SDS011;9149;47.002;8.604;2022-09-27T19:29:11;1.08;;;0.90;;
18048;SDS011;9149;47.002;8.604;2022-09-27T19:31:40;4.32;;;1.70;;
18048;SDS011;9149;47.002;8.604;2022-09-27T19:34:08;5.80;;;1.85;;
18048;SDS011;9149;47.002;8.604;2022-09-27T19:36:37;1.60;;;1.13;;
18048;SDS011;9149;47.002;8.604;2022-09-27T19:39:05;3.13;;;1.20;;
18048;SDS011;9149;47.002;8.604;2022-09-27T19:41:33;2.67;;;0.90;;
18048;SDS011;9149;47.002;8.604;2022-09-27T19:44:01;1.00;;;0.90;;
18048;SDS011;9149;47.002;8.604;2022-09-27T19:46:30;0.70;;;0.70;;
18048;SDS011;9149;47.002;8.604;2022-09-27T19:48:58;1.80;;;0.85;;
18048;SDS011;9149;47.002;8.604;2022-09-27T19:51:26;2.15;;;0.85;;
18048;SDS011;9149;47.002;8.604;2022-09-27T19:53:54;1.27;;;0.88;;
18048;SDS011;9149;47.002;8.604;2022-09-27T19:56:22;0.80;;;0.75;;
18048;SDS011;9149;47.002;8.604;2022-09-27T19:58:50;0.82;;;0.70;;
18048;SDS011;9149;47.002;8.604;2022-09-27T20:01:19;1.05;;;0.90;;
18048;SDS011;9149;47.002;8.604;2022-09-27T20:03:48;0.90;;;0.90;;
18048;SDS011;9149;47.002;8.604;2022-09-27T20:06:17;0.88;;;0.70;;
18048;SDS011;9149;47.002;8.604;2022-09-27T20:08:46;0.70;;;0.70;;
18048;SDS011;9149;47.002;8.604;2022-09-27T20:11:14;0.95;;;0.70;;
18048;SDS011;9149;47.002;8.604;2022-09-27T20:13:42;2.58;;;0.90;;
18048;SDS011;9149;47.002;8.604;2022-09-27T20:16:11;4.43;;;0.90;;
18048;SDS011;9149;47.002;8.604;2022-09-27T20:18:39;4.75;;;1.00;;
18048;SDS011;9149;47.002;8.604;2022-09-27T20:21:09;0.80;;;0.80;;
18048;SDS011;9149;47.002;8.604;2022-09-27T20:23:37;1.00;;;0.70;;
18048;SDS011;9149;47.002;8.604;2022-09-27T20:26:05;0.60;;;0.60;;
18048;SDS011;9149;47.002;8.604;2022-09-27T20:28:34;1.65;;;0.93;;
18048;SDS011;9149;47.002;8.604;2022-09-27T20:31:02;1.30;;;0.90;;
18048;SDS011;9149;47.002;8.604;2022-09-27T20:33:31;0.90;;;0.80;;
18048;SDS011;9149;47.002;8.604;2022-09-27T20:36:13;0.80;;;0.80;;
18048;SDS011;9149;47.002;8.604;2022-09-27T20:38:42;1.92;;;1.23;;
18048;SDS011;9149;47.002;8.604;2022-09-27T20:41:10;0.75;;;0.75;;
18048;SDS011;9149;47.002;8.604;2022-09-27T20:43:38;0.93;;;0.80;;
18048;SDS011;9149;47.002;8.604;2022-09-27T20:46:07;0.95;;;0.88;;
18048;SDS011;9149;47.002;8.604;2022-09-27T20:48:35;0.57;;;0.57;;
18048;SDS011;9149;47.002;8.604;2022-09-27T20:51:03;0.70;;;0.70;;
18048;SDS011;9149;47.002;8.604;2022-09-27T20:53:33;0.85;;;0.70;;
18048;SDS011;9149;47.002;8.604;2022-09-27T20:56:01;1.75;;;1.02;;
18048;SDS011;9149;47.002;8.604;2022-09-27T20:58:29;2.25;;;1.00;;
18048;SDS011;9149;47.002;8.604;2022-09-27T21:01:04;0.82;;;0.70;;
18048;SDS011;9149;47.002;8.604;2022-09-27T21:03:32;0.73;;;0.70;;
18048;SDS011;9149;47.002;8.604;2022-09-27T21:06:01;0.93;;;0.80;;
18048;SDS011;9149;47.002;8.604;2022-09-27T21:08:31;0.60;;;0.60;;
18048;SDS011;9149;47.002;8.604;2022-09-27T21:11:05;0.60;;;0.60;;
18048;SDS011;9149;47.002;8.604;2022-09-27T21:13:33;0.60;;;0.60;;
18048;SDS011;9149;47.002;8.604;2022-09-27T21:16:01;0.73;;;0.73;;
18048;SDS011;9149;47.002;8.604;2022-09-27T21:18:29;0.88;;;0.70;;
18048;SDS011;9149;47.002;8.604;2022-09-27T21:20:57;7.63;;;1.08;;
18048;SDS011;9149;47.002;8.604;2022-09-27T21:23:25;0.82;;;0.60;;
18048;SDS011;9149;47.002;8.604;2022-09-27T21:26:01;1.05;;;0.70;;
18048;SDS011;9149;47.002;8.604;2022-09-27T21:28:32;0.77;;;0.70;;
18048;SDS011;9149;47.002;8.604;2022-09-27T21:31:01;1.95;;;0.90;;
18048;SDS011;9149;47.002;8.604;2022-09-27T21:33:30;0.60;;;0.60;;
18048;SDS011;9149;47.002;8.604;2022-09-27T21:35:58;0.60;;;0.60;;
18048;SDS011;9149;47.002;8.604;2022-09-27T21:38:28;3.40;;;0.70;;
18048;SDS011;9149;47.002;8.604;2022-09-27T21:40:56;3.70;;;0.70;;
18048;SDS011;9149;47.002;8.604;2022-09-27T21:43:25;0.70;;;0.65;;
18048;SDS011;9149;47.002;8.604;2022-09-27T21:45:56;0.85;;;0.70;;
18048;SDS011;9149;47.002;8.604;2022-09-27T21:48:26;0.70;;;0.70;;
18048;SDS011;9149;47.002;8.604;2022-09-27T21:51:00;1.05;;;0.80;;
18048;SDS011;9149;47.002;8.604;2022-09-27T21:53:27;1.58;;;0.80;;
18048;SDS011;9149;47.002;8.604;2022-09-27T21:55:55;0.50;;;0.50;;
18048;SDS011;9149;47.002;8.604;2022-09-27T21:58:23;1.25;;;0.80;;
18048;SDS011;9149;47.002;8.604;2022-09-27T22:00:51;0.80;;;0.80;;
18048;SDS011;9149;47.002;8.604;2022-09-27T22:03:20;0.98;;;0.77;;
18048;SDS011;9149;47.002;8.604;2022-09-27T22:05:48;3.17;;;0.80;;
18048;SDS011;9149;47.002;8.604;2022-09-27T22:08:16;0.65;;;0.65;;
18048;SDS011;9149;47.002;8.604;2022-09-27T22:10:44;0.90;;;0.70;;
18048;SDS011;9149;47.002;8.604;2022-09-27T22:13:12;0.80;;;0.80;;
18048;SDS011;9149;47.002;8.604;2022-09-27T22:15:40;0.70;;;0.70;;
18048;SDS011;9149;47.002;8.604;2022-09-27T22:18:08;1.33;;;0.77;;
18048;SDS011;9149;47.002;8.604;2022-09-27T22:20:37;1.30;;;0.70;;
18048;SDS011;9149;47.002;8.604;2022-09-27T22:23:05;1.08;;;0.73;;
18048;SDS011;9149;47.002;8.604;2022-09-27T22:25:32;1.40;;;0.70;;
18048;SDS011;9149;47.002;8.604;2022-09-27T22:28:00;0.70;;;0.70;;
18048;SDS011;9149;47.002;8.604;2022-09-27T22:30:28;1.10;;;0.80;;
18048;SDS011;9149;47.002;8.604;2022-09-27T22:32:57;0.85;;;0.80;;
18048;SDS011;9149;47.002;8.604;2022-09-27T22:35:24;0.80;;;0.80;;
18048;SDS011;9149;47.002;8.604;2022-09-27T22:37:53;0.80;;;0.63;;
18048;SDS011;9149;47.002;8.604;2022-09-27T22:40:21;0.70;;;0.70;;
18048;SDS011;9149;47.002;8.604;2022-09-27T22:42:49;0.70;;;0.70;;
18048;SDS011;9149;47.002;8.604;2022-09-27T22:45:18;1.25;;;0.80;;
18048;SDS011;9149;47.002;8.604;2022-09-27T22:47:45;0.80;;;0.80;;
18048;SDS011;9149;47.002;8.604;2022-09-27T22:50:13;1.35;;;0.80;;
18048;SDS011;9149;47.002;8.604;2022-09-27T22:52:42;4.38;;;1.05;;
18048;SDS011;9149;47.002;8.604;2022-09-27T22:55:11;0.80;;;0.60;;
18048;SDS011;9149;47.002;8.604;2022-09-27T22:57:38;0.75;;;0.63;;
18048;SDS011;9149;47.002;8.604;2022-09-27T23:00:06;0.82;;;0.80;;
18048;SDS011;9149;47.002;8.604;2022-09-27T23:02:34;0.82;;;0.70;;
18048;SDS011;9149;47.002;8.604;2022-09-27T23:05:03;0.70;;;0.70;;
18048;SDS011;9149;47.002;8.604;2022-09-27T23:07:31;1.23;;;0.70;;
18048;SDS011;9149;47.002;8.604;2022-09-27T23:09:59;0.65;;;0.65;;
18048;SDS011;9149;47.002;8.604;2022-09-27T23:12:27;0.80;;;0.70;;
18048;SDS011;9149;47.002;8.604;2022-09-27T23:14:56;1.02;;;0.70;;
18048;SDS011;9149;47.002;8.604;2022-09-27T23:17:24;0.60;;;0.60;;
18048;SDS011;9149;47.002;8.604;2022-09-27T23:19:51;0.90;;;0.87;;
18048;SDS011;9149;47.002;8.604;2022-09-27T23:22:19;0.80;;;0.60;;
18048;SDS011;9149;47.002;8.604;2022-09-27T23:24:47;0.55;;;0.52;;
18048;SDS011;9149;47.002;8.604;2022-09-27T23:27:14;1.02;;;0.70;;
18048;SDS011;9149;47.002;8.604;2022-09-27T23:29:54;0.70;;;0.70;;
18048;SDS011;9149;47.002;8.604;2022-09-27T23:32:22;0.80;;;0.80;;
18048;SDS011;9149;47.002;8.604;2022-09-27T23:34:56;0.60;;;0.60;;
18048;SDS011;9149;47.002;8.604;2022-09-27T23:37:24;1.23;;;0.70;;
18048;SDS011;9149;47.002;8.604;2022-09-27T23:39:51;0.80;;;0.80;;
18048;SDS011;9149;47.002;8.604;2022-09-27T23:42:19;0.70;;;0.60;;
18048;SDS011;9149;47.002;8.604;2022-09-27T23:44:47;0.50;;;0.50;;
18048;SDS011;9149;47.002;8.604;2022-09-27T23:47:16;0.85;;;0.80;;
18048;SDS011;9149;47.002;8.604;2022-09-27T23:49:44;0.70;;;0.70;;
18048;SDS011;9149;47.002;8.604;2022-09-27T23:52:12;0.60;;;0.60;;
18048;SDS011;9149;47.002;8.604;2022-09-27T23:54:40;0.60;;;0.60;;
18048;SDS011;9149;47.002;8.604;2022-09-27T23:57:08;1.30;;;0.75;;
18048;SDS011;9149;47.002;8.604;2022-09-27T23:59:35;2.03;;;0.63;;
